createdAt,value
2018-07-26T00:00:50.631Z,3.90
2018-07-26T00:03:18.670Z,4.60
2018-07-26T00:05:46.737Z,4.37
2018-07-26T00:08:14.782Z,4.27
2018-07-26T00:10:43.007Z,4.27
2018-07-26T00:13:11.044Z,4.70
2018-07-26T00:15:39.079Z,4.40
2018-07-26T00:18:07.123Z,5.07
2018-07-26T00:20:35.254Z,4.50
2018-07-26T00:23:03.303Z,5.30
2018-07-26T00:25:31.347Z,4.40
2018-07-26T00:27:59.383Z,5.40
2018-07-26T00:30:27.421Z,4.70
2018-07-26T00:32:55.263Z,5.03
2018-07-26T00:35:23.293Z,5.20
2018-07-26T00:37:51.337Z,5.07
2018-07-26T00:40:19.375Z,5.10
2018-07-26T00:42:47.423Z,5.10
2018-07-26T00:45:15.294Z,7.83
2018-07-26T00:47:43.351Z,5.77
2018-07-26T00:50:11.386Z,5.37
2018-07-26T00:52:39.431Z,4.53
2018-07-26T00:55:07.462Z,5.00
2018-07-26T00:57:35.875Z,5.77
2018-07-26T01:00:04.426Z,5.93
2018-07-26T01:02:32.498Z,5.77
2018-07-26T01:05:00.534Z,6.40
2018-07-26T01:07:28.564Z,5.27
2018-07-26T01:09:56.578Z,5.40
2018-07-26T01:12:24.606Z,5.60
2018-07-26T01:14:52.673Z,6.13
2018-07-26T01:17:20.727Z,5.20
2018-07-26T01:19:48.755Z,6.73
2018-07-26T01:22:16.774Z,7.27
2018-07-26T01:24:44.832Z,5.87
2018-07-26T01:27:12.852Z,5.00
2018-07-26T01:29:40.866Z,3.10
2018-07-26T01:32:08.897Z,3.63
2018-07-26T01:34:36.936Z,5.47
2018-07-26T01:37:05.267Z,5.43
2018-07-26T01:39:33.286Z,3.80
2018-07-26T01:42:01.311Z,4.80
2018-07-26T01:44:29.337Z,5.47
2018-07-26T01:46:57.358Z,5.30
2018-07-26T01:49:25.410Z,5.10
2018-07-26T01:51:53.243Z,5.10
2018-07-26T01:54:21.263Z,6.27
2018-07-26T01:56:49.266Z,5.30
2018-07-26T01:59:17.292Z,14.10
2018-07-26T02:01:45.337Z,9.23
2018-07-26T02:04:13.351Z,8.70
2018-07-26T02:06:41.378Z,10.03
2018-07-26T02:09:10.335Z,10.00
2018-07-26T02:11:38.370Z,10.43
2018-07-26T02:14:10.682Z,11.30
2018-07-26T02:16:38.736Z,10.40
2018-07-26T02:19:06.982Z,9.50
2018-07-26T02:21:35.048Z,8.73
2018-07-26T02:24:03.058Z,8.60
2018-07-26T02:26:31.075Z,7.97
2018-07-26T02:28:59.107Z,7.30
2018-07-26T02:31:27.143Z,6.77
2018-07-26T02:33:55.164Z,4.77
2018-07-26T02:36:23.203Z,7.33
2018-07-26T02:38:51.264Z,9.00
2018-07-26T02:41:19.106Z,10.70
2018-07-26T02:43:47.130Z,10.00
2018-07-26T02:46:15.150Z,10.13
2018-07-26T02:48:43.190Z,9.40
2018-07-26T02:51:11.221Z,11.37
2018-07-26T02:53:39.494Z,10.33
2018-07-26T02:56:07.548Z,10.63
2018-07-26T02:58:35.592Z,11.47
2018-07-26T03:01:03.620Z,13.50
2018-07-26T03:03:31.636Z,11.53
2018-07-26T03:05:59.683Z,10.77
2018-07-26T03:08:27.727Z,9.60
2018-07-26T03:10:55.774Z,9.17
2018-07-26T03:13:23.815Z,9.07
2018-07-26T03:15:51.841Z,9.70
2018-07-26T03:18:19.866Z,10.37
2018-07-26T03:20:47.994Z,10.13
2018-07-26T03:23:15.994Z,9.10
2018-07-26T03:25:44.430Z,9.07
2018-07-26T03:28:12.441Z,10.70
2018-07-26T03:30:40.483Z,9.60
2018-07-26T03:33:08.515Z,10.20
2018-07-26T03:35:36.536Z,9.90
2018-07-26T03:38:04.550Z,9.97
2018-07-26T03:40:32.590Z,9.90
2018-07-26T03:43:00.627Z,6.17
2018-07-26T03:45:28.639Z,5.60
2018-07-26T03:47:56.671Z,5.90
2018-07-26T03:50:24.674Z,6.23
2018-07-26T03:52:52.775Z,8.27
2018-07-26T03:55:20.772Z,7.80
2018-07-26T03:57:48.826Z,7.93
2018-07-26T04:00:16.850Z,7.20
2018-07-26T04:02:44.864Z,7.97
2018-07-26T04:05:12.903Z,7.00
2018-07-26T04:07:40.930Z,7.73
2018-07-26T04:10:08.773Z,6.70
2018-07-26T04:12:36.597Z,6.23
2018-07-26T04:15:05.070Z,6.53
2018-07-26T04:17:32.907Z,6.07
2018-07-26T04:20:00.801Z,6.80
2018-07-26T04:22:28.597Z,6.67
2018-07-26T04:24:56.451Z,5.70
2018-07-26T04:27:24.279Z,5.80
2018-07-26T04:29:52.115Z,5.63
2018-07-26T04:32:19.969Z,5.93
2018-07-26T04:34:47.803Z,6.87
2018-07-26T04:37:15.659Z,5.87
2018-07-26T04:39:43.517Z,5.73
2018-07-26T04:42:11.341Z,6.53
2018-07-26T04:44:39.174Z,6.40
2018-07-26T04:47:07.060Z,5.50
2018-07-26T04:49:35.082Z,5.40
2018-07-26T04:52:03.119Z,4.70
2018-07-26T04:54:31.178Z,5.40
2018-07-26T04:56:59.210Z,5.93
2018-07-26T04:59:27.262Z,5.70
2018-07-26T05:01:55.311Z,5.60
2018-07-26T05:04:23.311Z,5.50
2018-07-26T05:06:51.422Z,5.13
2018-07-26T05:09:19.446Z,5.73
2018-07-26T05:11:47.458Z,5.23
2018-07-26T05:14:15.487Z,5.40
2018-07-26T05:16:44.290Z,5.80
2018-07-26T05:19:12.350Z,5.53
2018-07-26T05:21:40.385Z,5.10
2018-07-26T05:24:09.890Z,6.17
2018-07-26T05:26:38.419Z,5.37
2018-07-26T05:29:06.612Z,5.90
2018-07-26T05:31:34.650Z,5.67
2018-07-26T05:34:02.687Z,5.83
2018-07-26T05:36:30.820Z,5.70
2018-07-26T05:38:59.919Z,5.60
2018-07-26T05:41:27.955Z,6.10
2018-07-26T05:43:56.003Z,5.20
2018-07-26T05:46:24.047Z,6.17
2018-07-26T05:48:52.114Z,6.37
2018-07-26T05:51:20.147Z,6.93
2018-07-26T05:53:48.166Z,5.30
2018-07-26T05:56:16.016Z,6.43
2018-07-26T05:58:44.046Z,7.07
2018-07-26T06:01:12.083Z,6.70
2018-07-26T06:03:40.180Z,6.90
2018-07-26T06:06:08.211Z,6.50
2018-07-26T06:08:36.243Z,7.13
2018-07-26T06:11:04.290Z,6.77
2018-07-26T06:13:33.418Z,6.73
2018-07-26T06:16:01.466Z,6.30
2018-07-26T06:18:29.553Z,6.17
2018-07-26T06:20:58.695Z,6.37
2018-07-26T06:23:26.748Z,6.80
2018-07-26T06:25:54.826Z,6.73
2018-07-26T06:28:23.402Z,6.43
2018-07-26T06:30:51.430Z,6.83
2018-07-26T06:33:19.460Z,6.90
2018-07-26T06:35:47.482Z,6.10
2018-07-26T06:38:15.515Z,6.30
2018-07-26T06:40:43.551Z,6.50
2018-07-26T06:43:11.566Z,6.90
2018-07-26T06:45:39.719Z,6.53
2018-07-26T06:48:07.839Z,7.20
2018-07-26T06:50:35.937Z,7.63
2018-07-26T06:53:03.803Z,7.10
2018-07-26T06:55:31.849Z,7.60
2018-07-26T06:58:00.187Z,6.90
2018-07-26T07:00:28.307Z,6.90
2018-07-26T07:02:56.342Z,7.13
2018-07-26T07:05:24.358Z,7.33
2018-07-26T07:07:52.460Z,7.13
2018-07-26T07:10:20.474Z,6.53
2018-07-26T07:12:49.567Z,6.53
2018-07-26T07:15:18.116Z,7.03
2018-07-26T07:17:46.131Z,7.50
2018-07-26T07:20:14.475Z,6.87
2018-07-26T07:22:42.580Z,7.30
2018-07-26T07:25:10.599Z,7.83
2018-07-26T07:27:38.638Z,6.43
2018-07-26T07:30:14.149Z,6.93
2018-07-26T07:32:42.657Z,7.20
2018-07-26T07:35:11.267Z,7.50
2018-07-26T07:37:39.893Z,7.53
2018-07-26T07:40:08.745Z,7.93
2018-07-26T07:42:36.800Z,7.10
2018-07-26T07:45:09.251Z,6.50
2018-07-26T07:47:37.124Z,6.87
2018-07-26T07:50:05.614Z,7.03
2018-07-26T07:52:33.666Z,7.60
2018-07-26T07:55:01.723Z,7.13
2018-07-26T07:57:29.775Z,7.67
2018-07-26T07:59:57.787Z,7.73
2018-07-26T08:02:25.804Z,8.13
2018-07-26T08:04:53.978Z,7.40
2018-07-26T08:07:22.023Z,6.87
2018-07-26T08:09:50.047Z,7.13
2018-07-26T08:12:18.103Z,7.60
2018-07-26T08:14:46.156Z,8.13
2018-07-26T08:17:14.316Z,7.40
2018-07-26T08:19:42.364Z,7.83
2018-07-26T08:22:10.378Z,6.60
2018-07-26T08:24:38.407Z,6.83
2018-07-26T08:27:06.434Z,6.67
2018-07-26T08:29:34.483Z,6.63
2018-07-26T08:32:02.618Z,6.37
2018-07-26T08:34:30.673Z,6.13
2018-07-26T08:36:58.776Z,6.00
2018-07-26T08:39:26.777Z,6.60
2018-07-26T08:41:54.681Z,6.40
2018-07-26T08:44:22.707Z,6.23
2018-07-26T08:46:50.779Z,6.27
2018-07-26T08:49:18.980Z,6.30
2018-07-26T08:51:47.058Z,6.67
2018-07-26T08:54:15.638Z,6.50
2018-07-26T08:56:43.687Z,6.57
2018-07-26T08:59:13.778Z,6.60
2018-07-26T09:01:41.804Z,6.07
2018-07-26T09:04:09.863Z,6.23
2018-07-26T09:06:37.928Z,6.93
2018-07-26T09:09:08.391Z,6.77
2018-07-26T09:11:36.257Z,5.70
2018-07-26T09:14:05.219Z,6.87
2018-07-26T09:16:34.018Z,6.67
2018-07-26T09:19:03.291Z,5.80
2018-07-26T09:21:31.760Z,7.20
2018-07-26T09:24:00.020Z,6.60
2018-07-26T09:26:28.181Z,5.27
2018-07-26T09:28:56.344Z,5.50
2018-07-26T09:31:24.666Z,6.43
2018-07-26T09:33:52.739Z,6.23
2018-07-26T09:36:20.981Z,5.90
2018-07-26T09:38:48.987Z,5.57
2018-07-26T09:41:17.047Z,6.67
2018-07-26T09:43:45.171Z,6.33
2018-07-26T09:46:13.518Z,5.83
2018-07-26T09:48:41.622Z,5.20
2018-07-26T09:51:09.658Z,5.27
2018-07-26T09:53:37.719Z,5.50
2018-07-26T09:56:05.750Z,5.70
2018-07-26T09:58:33.923Z,5.47
2018-07-26T10:01:07.470Z,5.43
2018-07-26T10:03:35.511Z,5.60
2018-07-26T10:06:04.720Z,5.80
2018-07-26T10:08:32.754Z,6.83
2018-07-26T10:11:00.791Z,5.90
2018-07-26T10:13:30.059Z,5.47
2018-07-26T10:15:57.882Z,5.80
2018-07-26T10:18:27.014Z,5.87
2018-07-26T10:20:55.048Z,5.93
2018-07-26T10:23:23.084Z,5.67
2018-07-26T10:25:51.095Z,5.60
2018-07-26T10:28:19.154Z,5.10
2018-07-26T10:30:47.195Z,4.30
2018-07-26T10:33:15.246Z,4.60
2018-07-26T10:35:43.273Z,4.03
2018-07-26T10:38:11.330Z,4.10
2018-07-26T10:40:39.351Z,4.30
2018-07-26T10:43:08.010Z,5.07
2018-07-26T10:45:36.415Z,4.87
2018-07-26T10:48:04.499Z,4.33
2018-07-26T10:50:32.519Z,3.87
2018-07-26T10:53:00.504Z,4.70
2018-07-26T10:55:28.587Z,4.00
2018-07-26T10:57:57.875Z,3.90
2018-07-26T11:00:25.935Z,4.00
2018-07-26T11:02:54.134Z,4.30
2018-07-26T11:05:22.445Z,4.10
2018-07-26T11:07:50.659Z,4.50
2018-07-26T11:10:18.923Z,5.10
2018-07-26T11:12:46.926Z,5.20
2018-07-26T11:15:35.235Z,4.80
2018-07-26T11:18:03.559Z,4.73
2018-07-26T11:20:31.562Z,5.13
2018-07-26T11:22:59.826Z,4.77
2018-07-26T11:25:27.892Z,4.70
2018-07-26T11:27:55.979Z,5.50
2018-07-26T11:30:24.611Z,4.40
2018-07-26T11:32:52.753Z,4.73
2018-07-26T11:35:20.854Z,4.27
2018-07-26T11:37:50.027Z,5.40
2018-07-26T11:40:18.055Z,5.27
2018-07-26T11:42:46.231Z,5.70
2018-07-26T11:45:14.334Z,5.00
2018-07-26T11:47:43.211Z,4.90
2018-07-26T11:50:12.167Z,4.90
2018-07-26T11:52:41.205Z,4.87
2018-07-26T11:55:09.362Z,6.03
2018-07-26T11:57:37.401Z,5.47
2018-07-26T12:00:06.286Z,5.00
2018-07-26T12:02:34.345Z,5.30
2018-07-26T12:05:02.422Z,4.50
2018-07-26T12:07:30.450Z,3.90
2018-07-26T12:09:58.542Z,4.40
2018-07-26T12:12:26.618Z,4.67
2018-07-26T12:14:54.700Z,4.73
2018-07-26T12:17:22.822Z,5.63
2018-07-26T12:19:51.043Z,4.27
2018-07-26T12:22:19.055Z,5.40
2018-07-26T12:24:47.086Z,5.63
2018-07-26T12:27:15.158Z,4.97
2018-07-26T12:29:43.214Z,5.17
2018-07-26T12:32:11.250Z,5.63
2018-07-26T12:34:39.284Z,4.87
2018-07-26T12:37:07.299Z,5.40
2018-07-26T12:39:35.336Z,5.07
2018-07-26T12:42:03.471Z,6.27
2018-07-26T12:44:31.523Z,5.83
2018-07-26T12:46:59.546Z,5.60
2018-07-26T12:49:27.670Z,5.77
2018-07-26T12:51:55.744Z,5.97
2018-07-26T12:54:23.766Z,5.30
2018-07-26T12:56:51.790Z,4.80
2018-07-26T12:59:19.826Z,5.27
2018-07-26T13:01:47.855Z,4.70
2018-07-26T13:04:16.371Z,4.10
2018-07-26T13:06:44.420Z,4.50
2018-07-26T13:09:12.473Z,4.30
2018-07-26T13:11:47.304Z,4.50
2018-07-26T13:14:15.361Z,4.77
2018-07-26T13:16:43.407Z,4.27
2018-07-26T13:19:11.579Z,4.93
2018-07-26T13:21:39.740Z,4.77
2018-07-26T13:24:07.859Z,4.70
2018-07-26T13:26:36.174Z,4.27
2018-07-26T13:29:04.383Z,4.63
2018-07-26T13:31:32.894Z,5.03
2018-07-26T13:34:00.959Z,3.90
2018-07-26T13:36:29.082Z,4.37
2018-07-26T13:38:57.167Z,4.93
2018-07-26T13:41:25.026Z,4.13
2018-07-26T13:43:53.066Z,4.47
2018-07-26T13:46:21.185Z,3.70
2018-07-26T13:48:49.144Z,4.67
2018-07-26T13:51:17.185Z,3.63
2018-07-26T13:53:45.229Z,4.00
2018-07-26T13:56:13.363Z,4.50
2018-07-26T13:58:42.355Z,3.60
2018-07-26T14:01:10.419Z,3.97
2018-07-26T14:03:38.281Z,3.60
2018-07-26T14:06:06.456Z,3.90
2018-07-26T14:08:34.506Z,3.77
2018-07-26T14:11:02.408Z,3.50
2018-07-26T14:13:30.492Z,4.20
2018-07-26T14:15:58.696Z,4.20
2018-07-26T14:18:26.575Z,3.70
2018-07-26T14:20:54.638Z,3.43
2018-07-26T14:23:28.192Z,4.30
2018-07-26T14:25:56.312Z,3.40
2018-07-26T14:28:24.398Z,4.20
2018-07-26T14:30:52.474Z,4.20
2018-07-26T14:33:20.363Z,3.80
2018-07-26T14:35:48.407Z,4.03
2018-07-26T14:38:16.504Z,4.27
2018-07-26T14:40:44.376Z,4.40
2018-07-26T14:43:12.422Z,4.60
2018-07-26T14:45:40.490Z,4.33
2018-07-26T14:48:08.556Z,4.30
2018-07-26T14:50:36.578Z,4.00
2018-07-26T14:53:04.627Z,4.10
2018-07-26T14:55:32.655Z,4.40
2018-07-26T14:58:01.150Z,4.30
2018-07-26T15:00:29.237Z,3.83
2018-07-26T15:02:57.470Z,4.23
2018-07-26T15:05:25.326Z,4.43
2018-07-26T15:07:53.269Z,3.80
2018-07-26T15:10:21.258Z,3.63
2018-07-26T15:12:49.087Z,4.07
2018-07-26T15:15:16.936Z,3.90
2018-07-26T15:17:45.584Z,4.00
2018-07-26T15:20:13.728Z,3.50
2018-07-26T15:22:41.554Z,4.17
2018-07-26T15:25:09.599Z,3.83
2018-07-26T15:27:37.446Z,4.00
2018-07-26T15:30:05.913Z,3.63
2018-07-26T15:32:33.924Z,4.30
2018-07-26T15:35:01.938Z,4.07
2018-07-26T15:37:29.958Z,4.10
2018-07-26T15:39:57.800Z,4.27
2018-07-26T15:42:25.921Z,3.77
2018-07-26T15:44:53.777Z,4.13
2018-07-26T15:47:21.847Z,4.40
2018-07-26T15:49:52.658Z,3.47
2018-07-26T15:52:23.153Z,3.80
2018-07-26T15:54:51.464Z,3.50
2018-07-26T15:57:19.555Z,3.60
2018-07-26T15:59:47.367Z,3.70
2018-07-26T16:02:15.215Z,3.80
2018-07-26T16:04:43.289Z,4.03
2018-07-26T16:07:11.364Z,3.83
2018-07-26T16:09:39.431Z,3.80
2018-07-26T16:12:07.527Z,3.40
2018-07-26T16:14:35.589Z,3.73
2018-07-26T16:17:03.466Z,3.47
2018-07-26T16:19:31.329Z,3.60
2018-07-26T16:21:59.223Z,3.67
2018-07-26T16:24:27.085Z,3.83
2018-07-26T16:26:54.925Z,3.93
2018-07-26T16:29:22.758Z,3.60
2018-07-26T16:31:51.464Z,3.90
2018-07-26T16:34:19.582Z,3.40
2018-07-26T16:36:47.695Z,3.43
2018-07-26T16:39:15.563Z,3.30
2018-07-26T16:41:43.710Z,3.00
2018-07-26T16:44:11.810Z,3.40
2018-07-26T16:46:39.853Z,3.80
2018-07-26T16:49:08.275Z,3.50
2018-07-26T16:51:36.316Z,3.90
2018-07-26T16:54:04.189Z,3.60
2018-07-26T16:56:32.022Z,4.10
2018-07-26T16:59:00.184Z,3.90
2018-07-26T17:01:28.179Z,3.60
2018-07-26T17:03:56.406Z,3.30
2018-07-26T17:06:24.442Z,4.20
2018-07-26T17:08:52.606Z,3.60
2018-07-26T17:11:20.738Z,3.13
2018-07-26T17:13:48.822Z,3.83
2018-07-26T17:16:16.662Z,3.53
2018-07-26T17:18:44.589Z,3.40
2018-07-26T17:21:12.499Z,2.60
2018-07-26T17:23:40.588Z,4.30
2018-07-26T17:26:08.643Z,3.77
2018-07-26T17:28:36.677Z,3.93
2018-07-26T17:31:04.554Z,4.00
2018-07-26T17:33:32.562Z,3.70
2018-07-26T17:36:00.688Z,4.00
2018-07-26T17:38:28.558Z,3.50
2018-07-26T17:40:56.633Z,3.67
2018-07-26T17:43:24.714Z,3.83
2018-07-26T17:45:52.614Z,4.47
2018-07-26T17:48:20.666Z,3.97
2018-07-26T17:50:48.887Z,3.30
2018-07-26T17:53:16.905Z,4.13
2018-07-26T17:55:44.959Z,4.20
2018-07-26T17:58:12.867Z,3.83
2018-07-26T18:00:40.774Z,4.00
2018-07-26T18:03:09.002Z,4.03
2018-07-26T18:05:36.897Z,4.10
2018-07-26T18:08:04.765Z,4.27
2018-07-26T18:10:32.607Z,3.40
2018-07-26T18:13:00.649Z,3.67
2018-07-26T18:15:28.595Z,4.07
2018-07-26T18:17:56.611Z,3.70
2018-07-26T18:20:24.482Z,4.10
2018-07-26T18:22:52.377Z,3.50
2018-07-26T18:25:20.278Z,3.63
2018-07-26T18:27:48.319Z,3.33
2018-07-26T18:30:16.166Z,3.70
2018-07-26T18:32:44.256Z,3.83
2018-07-26T18:35:12.319Z,3.20
2018-07-26T18:37:40.414Z,4.10
2018-07-26T18:40:08.568Z,3.90
2018-07-26T18:42:36.728Z,4.10
2018-07-26T18:45:05.941Z,3.80
2018-07-26T18:47:34.005Z,4.10
2018-07-26T18:50:01.922Z,3.40
2018-07-26T18:52:30.073Z,3.73
2018-07-26T18:54:58.147Z,3.50
2018-07-26T18:57:26.365Z,4.80
2018-07-26T18:59:54.388Z,4.17
2018-07-26T19:02:22.283Z,4.20
2018-07-26T19:04:50.136Z,3.97
2018-07-26T19:07:18.159Z,3.50
2018-07-26T19:09:45.987Z,3.80
2018-07-26T19:12:14.029Z,3.97
2018-07-26T19:14:42.114Z,4.20
2018-07-26T19:17:10.197Z,3.87
2018-07-26T19:19:38.967Z,4.00
2018-07-26T19:22:07.190Z,3.97
2018-07-26T19:24:35.170Z,3.57
2018-07-26T19:27:03.890Z,3.47
2018-07-26T19:29:31.829Z,3.93
2018-07-26T19:31:59.789Z,3.60
2018-07-26T19:34:27.929Z,3.97
2018-07-26T19:36:55.979Z,3.90
2018-07-26T19:39:24.050Z,3.10
2018-07-26T19:41:51.883Z,3.90
2018-07-26T19:44:19.951Z,4.03
2018-07-26T19:46:48.018Z,3.43
2018-07-26T19:49:16.083Z,3.40
2018-07-26T19:51:44.136Z,4.03
2018-07-26T19:54:12.366Z,4.00
2018-07-26T19:56:40.456Z,4.00
2018-07-26T19:59:08.318Z,3.87
2018-07-26T20:01:36.352Z,4.27
2018-07-26T20:04:04.404Z,3.40
2018-07-26T20:06:32.327Z,3.70
2018-07-26T20:09:00.239Z,4.00
2018-07-26T20:11:28.846Z,3.20
2018-07-26T20:13:59.892Z,3.47
2018-07-26T20:16:28.002Z,4.10
2018-07-26T20:18:55.854Z,3.67
2018-07-26T20:21:23.956Z,3.40
2018-07-26T20:23:52.006Z,3.90
2018-07-26T20:26:20.127Z,4.00
2018-07-26T20:28:48.274Z,3.70
2018-07-26T20:31:16.450Z,3.73
2018-07-26T20:33:44.334Z,3.80
2018-07-26T20:36:12.202Z,3.63
2018-07-26T20:38:40.093Z,3.83
2018-07-26T20:41:07.963Z,4.53
2018-07-26T20:43:36.112Z,3.80
2018-07-26T20:46:04.127Z,3.83
2018-07-26T20:48:32.578Z,3.73
2018-07-26T20:51:00.696Z,3.43
2018-07-26T20:53:28.697Z,3.30
2018-07-26T20:55:56.762Z,4.13
2018-07-26T20:58:24.641Z,3.80
2018-07-26T21:00:52.688Z,3.60
2018-07-26T21:03:20.733Z,4.30
2018-07-26T21:05:48.664Z,3.80
2018-07-26T21:08:16.531Z,4.00
2018-07-26T21:10:44.451Z,4.10
2018-07-26T21:13:13.018Z,4.30
2018-07-26T21:15:42.630Z,3.80
2018-07-26T21:18:11.143Z,3.40
2018-07-26T21:20:39.857Z,3.73
2018-07-26T21:23:07.775Z,4.10
2018-07-26T21:25:36.092Z,4.70
2018-07-26T21:28:04.502Z,5.00
2018-07-26T21:30:33.245Z,4.30
2018-07-26T21:33:01.822Z,4.57
2018-07-26T21:35:31.279Z,5.13
2018-07-26T21:37:59.703Z,4.73
2018-07-26T21:40:27.959Z,4.50
2018-07-26T21:42:55.974Z,4.40
2018-07-26T21:45:23.842Z,5.80
2018-07-26T21:47:51.710Z,4.87
2018-07-26T21:50:19.606Z,4.10
2018-07-26T21:52:47.463Z,5.30
2018-07-26T21:55:15.368Z,5.50
2018-07-26T21:57:43.773Z,4.70
2018-07-26T22:00:12.850Z,5.40
2018-07-26T22:02:41.592Z,5.60
2018-07-26T22:05:09.826Z,6.20
2018-07-26T22:07:37.978Z,6.03
2018-07-26T22:10:06.251Z,5.50
2018-07-26T22:12:34.736Z,5.00
2018-07-26T22:15:03.042Z,5.17
2018-07-26T22:17:31.663Z,5.00
2018-07-26T22:20:00.227Z,5.10
2018-07-26T22:22:28.490Z,5.23
2018-07-26T22:24:56.566Z,5.80
2018-07-26T22:27:24.521Z,5.90
2018-07-26T22:29:53.109Z,5.63
2018-07-26T22:32:21.925Z,5.50
2018-07-26T22:34:50.134Z,6.57
2018-07-26T22:37:18.810Z,5.57
2018-07-26T22:39:47.139Z,6.87
2018-07-26T22:42:15.197Z,6.03
2018-07-26T22:44:43.699Z,7.07
2018-07-26T22:47:12.917Z,6.23
2018-07-26T22:49:40.958Z,6.27
2018-07-26T22:52:08.870Z,6.80
2018-07-26T22:54:36.776Z,6.53
2018-07-26T22:57:04.693Z,5.90
2018-07-26T22:59:32.519Z,6.90
2018-07-26T23:02:00.357Z,7.13
2018-07-26T23:04:28.190Z,7.90
2018-07-26T23:06:56.050Z,6.20
2018-07-26T23:09:23.890Z,6.33
2018-07-26T23:11:51.782Z,7.30
2018-07-26T23:14:19.633Z,7.30
2018-07-26T23:16:47.530Z,6.87
2018-07-26T23:19:15.388Z,7.10
2018-07-26T23:21:43.303Z,7.20
2018-07-26T23:24:11.144Z,7.77
2018-07-26T23:26:38.997Z,7.03
2018-07-26T23:29:06.824Z,7.40
2018-07-26T23:31:34.674Z,7.50
2018-07-26T23:34:02.550Z,7.20
2018-07-26T23:36:30.386Z,7.47
2018-07-26T23:38:58.326Z,7.80
2018-07-26T23:41:26.290Z,8.20
2018-07-26T23:43:54.186Z,8.73
2018-07-26T23:46:22.050Z,8.20
2018-07-26T23:48:49.929Z,8.50
2018-07-26T23:51:17.856Z,8.50
2018-07-26T23:53:45.703Z,8.40
2018-07-26T23:56:13.565Z,8.90
2018-07-26T23:58:41.412Z,8.20
